Time;durP1;ratioP1;P1;durP2;ratioP2;P2;SDS_P1;SDS_P2;PMS_P1;PMS_P2;Temp;Humidity;BMP_temperature;BMP_pressure;BME280_temperature;BME280_humidity;BME280_pressure;Samples;Min_cycle;Max_cycle;Signal;HPM_P1;HPM_P2
2022/09/02 00:00:05;;;;;;;;;;;;;;;15.68;nan;101693.03;5054793;28;19920;-60
2022/09/02 00:02:30;;;;;;;;;;;;;;;15.65;nan;101698.47;5054837;28;20009;-57
2022/09/02 00:04:56;;;;;;;;;;;;;;;15.62;nan;101695.94;5054777;28;19952;-55
2022/09/02 00:07:21;;;;;;;;;;;;;;;15.59;nan;101698.72;5054948;28;19912;-57
2022/09/02 00:09:46;;;;;;;;;;;;;;;15.56;nan;101695.31;5054817;28;19921;-57
2022/09/02 00:12:11;;;;;;;;;;;;;;;15.48;nan;101687.66;5054681;28;19916;-55
2022/09/02 00:14:38;;;;;;;;;;;;;;;15.45;nan;101689.53;5054559;28;19920;-60
2022/09/02 00:17:03;;;;;;;;;;;;;;;15.43;nan;101686.97;5037117;28;19919;-59
2022/09/02 00:19:29;;;;;;;;;;;;;;;15.39;nan;101685.34;5054524;28;19912;-58
2022/09/02 00:21:55;;;;;;;;;;;;;;;15.38;nan;101682.75;5054498;28;20387;-57
2022/09/02 00:24:20;;;;;;;;;;;;;;;15.37;nan;101689.84;5036786;28;19912;-57
2022/09/02 00:26:45;;;;;;;;;;;;;;;15.37;nan;101683.66;5036647;28;20087;-57
2022/09/02 00:29:13;;;;;;;;;;;;;;;15.29;nan;101673.38;5054225;28;20335;-57
2022/09/02 00:31:38;;;;;;;;;;;;;;;15.23;nan;101679.75;5054369;28;19964;-56
2022/09/02 00:34:04;;;;;;;;;;;;;;;14.96;nan;101638.38;5054479;28;19924;-59
2022/09/02 00:36:29;;;;;;;;;;;;;;;15.17;nan;101676.47;5054342;28;19920;-59
2022/09/02 00:38:54;;;;;;;;;;;;;;;15.16;nan;101675.63;5054278;28;20383;-56
2022/09/02 00:41:21;;;;;;;;;;;;;;;15.13;nan;101675.72;5054056;28;19927;-57
2022/09/02 00:43:51;;;;;;;;;;;;;;;15.12;nan;101671.34;5053911;28;19915;-56
2022/09/02 00:46:17;;;;;;;;;;;;;;;15.09;nan;101674.09;5036373;28;19966;-58
2022/09/02 00:48:45;;;;;;;;;;;;;;;15.04;nan;101669.91;5053957;28;19916;-58
2022/09/02 00:51:10;;;;;;;;;;;;;;;15.00;nan;101661.19;5054034;28;19962;-56
2022/09/02 00:53:38;;;;;;;;;;;;;;;14.96;nan;101658.72;5036195;28;19913;-58
2022/09/02 00:56:03;;;;;;;;;;;;;;;14.90;nan;101662.47;5036193;28;19913;-58
2022/09/02 00:58:29;;;;;;;;;;;;;;;14.88;nan;101656.38;5035795;28;19935;-55
2022/09/02 01:00:56;;;;;;;;;;;;;;;14.85;nan;101656.47;5035810;28;19963;-58
2022/09/02 01:03:22;;;;;;;;;;;;;;;14.83;nan;101650.34;5053858;28;19951;-58
2022/09/02 01:05:48;;;;;;;;;;;;;;;14.81;nan;101657.50;5053684;28;19920;-58
2022/09/02 01:08:14;;;;;;;;;;;;;;;14.81;nan;101654.00;5035904;28;19955;-56
2022/09/02 01:10:39;;;;;;;;;;;;;;;14.76;nan;101640.06;5053430;28;19921;-55
2022/09/02 01:13:09;;;;;;;;;;;;;;;14.72;nan;101641.94;5053490;28;19959;-55
2022/09/02 01:15:36;;;;;;;;;;;;;;;14.68;nan;101636.81;5053835;28;19924;-56
2022/09/02 01:18:03;;;;;;;;;;;;;;;14.62;nan;101638.75;5053667;28;19913;-57
2022/09/02 01:20:28;;;;;;;;;;;;;;;14.58;nan;101634.50;5053400;28;19916;-53
2022/09/02 01:22:54;;;;;;;;;;;;;;;14.54;nan;101642.59;5053386;28;20368;-58
2022/09/02 01:25:23;;;;;;;;;;;;;;;14.52;nan;101629.44;5053136;28;19917;-58
2022/09/02 01:27:49;;;;;;;;;;;;;;;14.50;nan;101641.88;5035142;28;19920;-55
2022/09/02 01:30:16;;;;;;;;;;;;;;;14.50;nan;101644.53;5053334;28;19912;-55
2022/09/02 01:32:41;;;;;;;;;;;;;;;14.50;nan;101635.72;5053082;28;19986;-56
2022/09/02 01:35:07;;;;;;;;;;;;;;;14.46;nan;101634.06;5053305;28;19912;-57
2022/09/02 01:37:32;;;;;;;;;;;;;;;14.41;nan;101630.72;5035189;28;19909;-57
2022/09/02 01:39:58;;;;;;;;;;;;;;;14.39;nan;101627.28;5052668;28;19925;-57
2022/09/02 01:42:23;;;;;;;;;;;;;;;14.38;nan;101628.19;5035253;28;19971;-54
2022/09/02 01:44:49;;;;;;;;;;;;;;;14.36;nan;101627.38;5035320;28;19912;-52
2022/09/02 01:47:19;;;;;;;;;;;;;;;14.32;nan;101626.63;5053071;28;19920;-57
2022/09/02 01:49:45;;;;;;;;;;;;;;;14.25;nan;101611.81;5052838;28;19955;-58
2022/09/02 01:52:10;;;;;;;;;;;;;;;14.24;nan;101619.84;5052764;28;20307;-57
2022/09/02 01:54:35;;;;;;;;;;;;;;;14.21;nan;101612.00;5052815;28;19970;-53
2022/09/02 01:57:01;;;;;;;;;;;;;;;14.19;nan;101616.47;5054613;28;20007;-58
2022/09/02 01:59:26;;;;;;;;;;;;;;;14.17;nan;101616.53;5053772;28;19960;-55
2022/09/02 02:01:51;;;;;;;;;;;;;;;14.18;nan;101614.75;5053216;28;19978;-58
2022/09/02 02:04:16;;;;;;;;;;;;;;;14.20;nan;101613.78;5036319;28;20013;-58
2022/09/02 02:06:42;;;;;;;;;;;;;;;14.19;nan;101612.03;5034921;28;19920;-56
2022/09/02 02:09:08;;;;;;;;;;;;;;;14.18;nan;101607.69;5052751;28;20338;-57
2022/09/02 02:11:33;;;;;;;;;;;;;;;14.15;nan;101612.22;5052410;28;19928;-55
2022/09/02 02:13:58;;;;;;;;;;;;;;;14.09;nan;101606.22;5052581;28;20347;-55
2022/09/02 02:16:24;;;;;;;;;;;;;;;14.06;nan;101605.47;5034407;28;20327;-58
2022/09/02 02:18:49;;;;;;;;;;;;;;;14.02;nan;101612.63;5034423;28;19960;-56
2022/09/02 02:21:14;;;;;;;;;;;;;;;13.99;nan;101603.91;5052529;28;19917;-54
2022/09/02 02:23:40;;;;;;;;;;;;;;;13.97;nan;101601.34;5052531;28;19917;-52
2022/09/02 02:26:05;;;;;;;;;;;;;;;13.93;nan;101599.72;5052403;28;19923;-54
2022/09/02 02:28:30;;;;;;;;;;;;;;;13.92;nan;101597.13;5018195;28;19912;-58
2022/09/02 02:30:55;;;;;;;;;;;;;;;13.89;nan;101592.78;5033956;28;20330;-57
2022/09/02 02:33:20;;;;;;;;;;;;;;;13.87;nan;101593.75;5052162;28;19912;-50
2022/09/02 02:35:46;;;;;;;;;;;;;;;13.85;nan;101585.88;5052463;28;19917;-55
2022/09/02 02:38:11;;;;;;;;;;;;;;;13.84;nan;101586.78;5052296;28;20070;-55
2022/09/02 02:40:36;;;;;;;;;;;;;;;13.84;nan;101586.78;5052281;28;20031;-56
2022/09/02 02:43:01;;;;;;;;;;;;;;;13.82;nan;101590.41;5052633;28;19967;-53
2022/09/02 02:45:27;;;;;;;;;;;;;;;13.75;nan;101592.38;5034380;28;19966;-57
2022/09/02 02:47:52;;;;;;;;;;;;;;;13.74;nan;101589.81;5034598;28;19920;-56
2022/09/02 02:50:18;;;;;;;;;;;;;;;13.73;nan;101588.94;5052145;28;19916;-57
2022/09/02 02:52:44;;;;;;;;;;;;;;;13.70;nan;101585.53;5034226;28;20307;-57
2022/09/02 02:55:10;;;;;;;;;;;;;;;13.70;nan;101581.09;5052172;28;19920;-59
2022/09/02 02:57:37;;;;;;;;;;;;;;;13.69;nan;101578.53;5052067;28;19948;-55
2022/09/02 03:00:22;;;;;;;;;;;;;;;13.68;nan;101588.22;5034664;28;19919;-58
2022/09/02 03:02:48;;;;;;;;;;;;;;;13.69;nan;101578.53;5051823;28;19909;-57
2022/09/02 03:05:13;;;;;;;;;;;;;;;13.70;nan;101573.16;5051789;28;20322;-58
2022/09/02 03:07:39;;;;;;;;;;;;;;;13.68;nan;101568.84;5052052;28;19917;-54
2022/09/02 03:10:07;;;;;;;;;;;;;;;13.70;nan;101574.94;5033891;28;20406;-54
2022/09/02 03:12:32;;;;;;;;;;;;;;;13.69;nan;101571.41;5032196;28;19921;-53
2022/09/02 03:14:57;;;;;;;;;;;;;;;13.68;nan;101567.06;5035976;28;19925;-59
2022/09/02 03:17:22;;;;;;;;;;;;;;;13.67;nan;101562.69;5018210;28;20496;-53
2022/09/02 03:19:49;;;;;;;;;;;;;;;13.66;nan;101562.75;5036274;28;19932;-54
2022/09/02 03:22:14;;;;;;;;;;;;;;;13.63;nan;101568.13;5036179;28;20382;-54
2022/09/02 03:24:40;;;;;;;;;;;;;;;13.60;nan;101576.19;5035711;28;19917;-54
2022/09/02 03:27:05;;;;;;;;;;;;;;;13.56;nan;101572.75;5035550;28;19932;-58
2022/09/02 03:29:30;;;;;;;;;;;;;;;;;;5045504;28;19921;-57
2022/09/02 03:31:56;;;;;;;;;;;;;;;22.55;67.59;58178.75;5055359;28;19913;-56
2022/09/02 03:34:21;;;;;;;;;;;;;;;;;;5055590;28;19923;-57
2022/09/02 03:36:46;;;;;;;;;;;;;;;;;;5055361;28;19912;-55
2022/09/02 03:39:11;;;;;;;;;;;;;;;;;;5048026;28;19939;-57
2022/09/02 03:41:36;;;;;;;;;;;;;;;;;;5035264;28;19921;-58
2022/09/02 03:44:01;;;;;;;;;;;;;;;;;;5035274;28;19913;-55
2022/09/02 03:46:27;;;;;;;;;;;;;;;;;;5035458;28;20307;-56
2022/09/02 03:48:52;;;;;;;;;;;;;;;;;;5038359;28;20371;-55
2022/09/02 03:51:17;;;;;;;;;;;;;;;;;;5055426;28;20413;-54
2022/09/02 03:53:42;;;;;;;;;;;;;;;;;;5054947;28;20004;-56
2022/09/02 03:56:07;;;;;;;;;;;;;;;;;;5054926;28;19913;-58
2022/09/02 03:58:32;;;;;;;;;;;;;;;;;;5054887;28;19913;-55
2022/09/02 04:00:57;;;;;;;;;;;;;;;;;;5018036;28;19962;-56
2022/09/02 04:03:23;;;;;;;;;;;;;;;;;;5045191;28;19916;-53
2022/09/02 04:05:49;;;;;;;;;;;;;;;;;;5036930;28;19921;-55
2022/09/02 04:08:14;;;;;;;;;;;;;;;;;;5054886;28;19913;-57
2022/09/02 04:10:39;;;;;;;;;;;;;;;;;;5038065;28;19923;-57
2022/09/02 04:13:04;;;;;;;;;;;;;;;;;;5034486;28;19921;-55
2022/09/02 04:15:30;;;;;;;;;;;;;;;;;;5034774;28;20359;-54
2022/09/02 04:17:56;;;;;;;;;;;;;;;;;;5034663;28;19961;-56
2022/09/02 04:20:21;;;;;;;;;;;;;;;;;;5047792;28;19974;-57
2022/09/02 04:22:47;;;;;;;;;;;;;;;;;;5054582;28;19919;-57
2022/09/02 04:25:12;;;;;;;;;;;;;;;;;;5054098;28;19952;-54
2022/09/02 04:27:37;;;;;;;;;;;;;;;;;;5053916;28;19924;-57
2022/09/02 04:30:02;;;;;;;;;;;;;;;;;;5043681;28;20284;-55
2022/09/02 04:32:27;;;;;;;;;;;;;;;;;;5034255;28;19913;-55
2022/09/02 04:34:52;;;;;;;;;;;;;;;;;;5034323;28;20404;-55
2022/09/02 04:37:17;;;;;;;;;;;;;;;;;;5034225;28;20388;-54
2022/09/02 04:39:42;;;;;;;;;;;;;;;;;;5041952;28;19917;-57
2022/09/02 04:42:08;;;;;;;;;;;;;;;;;;5054057;28;19967;-55
2022/09/02 04:44:33;;;;;;;;;;;;;;;;;;5054106;28;19920;-57
2022/09/02 04:46:58;;;;;;;;;;;;;;;;;;5054089;28;19919;-55
2022/09/02 04:49:23;;;;;;;;;;;;;;;;;;5049257;28;19916;-54
2022/09/02 04:51:49;;;;;;;;;;;;;;;;;;5034006;28;19925;-56
2022/09/02 04:54:14;;;;;;;;;;;;;;;;;;5033813;28;19913;-57
2022/09/02 04:56:39;;;;;;;;;;;;;;;;;;5034010;28;19919;-53
2022/09/02 04:59:04;;;;;;;;;;;;;;;;;;5039353;28;19916;-54
2022/09/02 05:01:31;;;;;;;;;;;;;;;;;;5042845;28;19963;-55
2022/09/02 05:03:56;;;;;;;;;;;;;;;;;;5033683;28;19924;-57
2022/09/02 05:06:23;;;;;;;;;;;;;;;13.01;nan;101515.47;5015805;28;19917;-56
2022/09/02 05:08:48;;;;;;;;;;;;;;;13.03;nan;101520.69;5033732;28;20354;-58
2022/09/02 05:11:17;;;;;;;;;;;;;;;13.06;nan;101515.31;5033774;28;19922;-55
2022/09/02 05:13:42;;;;;;;;;;;;;;;13.09;nan;101518.78;5051306;28;19917;-56
2022/09/02 05:16:07;;;;;;;;;;;;;;;13.10;nan;101517.88;5053180;28;19921;-58
2022/09/02 05:18:33;;;;;;;;;;;;;;;13.09;nan;101517.91;5053497;28;19920;-54
2022/09/02 05:20:58;;;;;;;;;;;;;;;13.06;nan;101524.13;5053384;28;19912;-58
2022/09/02 05:23:24;;;;;;;;;;;;;;;13.06;nan;101518.84;5020150;28;19913;-56
2022/09/02 05:25:49;;;;;;;;;;;;;;;13.06;nan;101525.91;5015483;28;19913;-55
2022/09/02 05:28:15;;;;;;;;;;;;;;;13.05;nan;101519.75;5033529;28;19917;-58
2022/09/02 05:30:40;;;;;;;;;;;;;;;13.05;nan;101524.19;5015952;28;19948;-53
2022/09/02 05:33:06;;;;;;;;;;;;;;;13.05;nan;101525.03;5015789;28;20407;-56
2022/09/02 05:35:31;;;;;;;;;;;;;;;13.07;nan;101525.00;5032458;28;20336;-59
2022/09/02 05:37:57;;;;;;;;;;;;;;;13.09;nan;101516.13;5015628;28;20398;-54
2022/09/02 05:40:22;;;;;;;;;;;;;;;13.11;nan;101522.22;5015559;28;19998;-57
2022/09/02 05:42:47;;;;;;;;;;;;;;;13.14;nan;101523.91;5024106;28;19956;-57
2022/09/02 05:45:13;;;;;;;;;;;;;;;13.19;nan;101524.63;5053459;28;19917;-56
2022/09/02 05:47:38;;;;;;;;;;;;;;;13.21;nan;101523.66;5052851;28;19921;-55
2022/09/02 05:50:03;;;;;;;;;;;;;;;13.23;nan;101521.84;5034839;28;19978;-58
2022/09/02 05:52:29;;;;;;;;;;;;;;;13.25;nan;101517.34;5050820;28;20020;-57
2022/09/02 05:54:55;;;;;;;;;;;;;;;13.25;nan;101522.63;5051780;28;19916;-57
2022/09/02 05:57:20;;;;;;;;;;;;;;;13.26;nan;101518.22;5034241;28;19913;-58
2022/09/02 05:59:47;;;;;;;;;;;;;;;13.29;nan;101520.75;5052305;28;19924;-58
2022/09/02 06:02:14;;;;;;;;;;;;;;;13.30;nan;101519.88;5033888;28;19917;-57
2022/09/02 06:04:39;;;;;;;;;;;;;;;13.34;nan;101517.06;5014646;28;20388;-54
2022/09/02 06:07:05;;;;;;;;;;;;;;;13.36;nan;101519.66;5014827;28;19915;-57
2022/09/02 06:09:30;;;;;;;;;;;;;;;13.40;nan;101513.34;5032370;28;19917;-57
2022/09/02 06:11:56;;;;;;;;;;;;;;;13.45;nan;101511.44;5037123;28;20487;-56
2022/09/02 06:14:21;;;;;;;;;;;;;;;13.45;nan;101512.28;5052497;28;20008;-52
2022/09/02 06:16:47;;;;;;;;;;;;;;;13.50;nan;101518.28;5048430;28;19921;-55
2022/09/02 06:19:13;;;;;;;;;;;;;;;13.56;nan;101516.34;5031388;28;19940;-52
2022/09/02 06:21:38;;;;;;;;;;;;;;;13.56;nan;101517.22;5032317;28;19924;-55
2022/09/02 06:24:05;;;;;;;;;;;;;;;13.58;nan;101514.50;5052243;28;19913;-57
2022/09/02 06:26:30;;;;;;;;;;;;;;;13.62;nan;101508.19;5034701;28;19999;-53
2022/09/02 06:28:56;;;;;;;;;;;;;;;13.68;nan;101511.50;5052344;28;20366;-56
2022/09/02 06:31:21;;;;;;;;;;;;;;;13.77;nan;101508.56;5052475;28;20391;-56
2022/09/02 06:33:47;;;;;;;;;;;;;;;13.89;nan;101509.91;5033087;28;19923;-56
2022/09/02 06:36:13;;;;;;;;;;;;;;;13.99;nan;101512.16;5014650;28;20290;-57
2022/09/02 06:38:39;;;;;;;;;;;;;;;14.15;nan;101512.47;5032381;28;19913;-54
2022/09/02 06:41:04;;;;;;;;;;;;;;;14.26;nan;101522.66;5033730;28;19955;-57
2022/09/02 06:43:30;;;;;;;;;;;;;;;14.44;nan;101516.72;5048607;28;20554;-51
2022/09/02 06:45:55;;;;;;;;;;;;;;;14.63;nan;101510.66;5052117;28;20538;-52
2022/09/02 06:48:21;;;;;;;;;;;;;;;14.83;nan;101514.31;5055504;28;19913;-52
2022/09/02 06:50:46;;;;;;;;;;;;;;;14.91;nan;101515.75;5056407;28;19913;-56
2022/09/02 06:53:12;;;;;;;;;;;;;;;15.02;nan;101521.50;5025192;28;19921;-55
2022/09/02 06:55:39;;;;;;;;;;;;;;;15.20;nan;101522.56;5018647;28;19920;-57
2022/09/02 06:58:04;;;;;;;;;;;;;;;15.23;nan;101520.63;5037185;28;19912;-55
2022/09/02 07:00:30;;;;;;;;;;;;;;;15.28;nan;101527.53;5021089;28;20411;-56
2022/09/02 07:05:40;;;;;;;;;;;;;;;15.46;nan;101513.50;5055967;28;19943;-56
2022/09/02 07:08:05;;;;;;;;;;;;;;;15.47;nan;101513.47;5056109;28;19924;-58
2022/09/02 07:10:30;;;;;;;;;;;;;;;15.61;nan;101520.88;5043678;28;19987;-56
2022/09/02 07:12:56;;;;;;;;;;;;;;;15.73;nan;101517.69;5045699;28;19923;-59
2022/09/02 07:15:21;;;;;;;;;;;;;;;15.87;nan;101517.09;5037292;28;19983;-56
2022/09/02 07:17:48;;;;;;;;;;;;;;;16.04;nan;101506.59;5035636;28;19921;-56
2022/09/02 07:20:13;;;;;;;;;;;;;;;16.19;nan;101513.88;5035699;28;19917;-57
2022/09/02 07:22:39;;;;;;;;;;;;;;;16.33;nan;101507.00;5041651;28;19909;-56
2022/09/02 07:25:04;;;;;;;;;;;;;;;16.50;nan;101503.56;5047146;28;19928;-55
2022/09/02 07:27:29;;;;;;;;;;;;;;;16.68;nan;101507.19;5035667;28;19913;-57
2022/09/02 07:29:55;;;;;;;;;;;;;;;16.82;nan;101502.09;5035701;28;20288;-58
2022/09/02 07:32:20;;;;;;;;;;;;;;;17.05;nan;101503.63;5039718;28;20355;-58
2022/09/02 07:34:46;;;;;;;;;;;;;;;17.30;nan;101506.84;5055491;28;19917;-54
2022/09/02 07:37:11;;;;;;;;;;;;;;;17.47;nan;101517.50;5055270;28;20299;-57
2022/09/02 07:39:36;;;;;;;;;;;;;;;17.60;nan;101507.13;5055563;28;19917;-55
2022/09/02 07:42:01;;;;;;;;;;;;;;;17.78;nan;101511.50;5054685;28;19921;-57
2022/09/02 07:44:27;;;;;;;;;;;;;;;17.94;nan;101510.66;5055216;28;19944;-57
2022/09/02 07:46:52;;;;;;;;;;;;;;;18.17;nan;101504.09;5037432;28;19960;-57
2022/09/02 07:49:19;;;;;;;;;;;;;;;18.27;nan;101517.81;5055214;28;20011;-56
2022/09/02 07:51:47;;;;;;;;;;;;;;;18.43;nan;101514.22;5054838;28;19959;-55
2022/09/02 07:54:13;;;;;;;;;;;;;;;18.46;nan;101513.19;5036768;28;19963;-54
2022/09/02 07:56:39;;;;;;;;;;;;;;;18.73;nan;101506.38;5035682;28;19929;-54
2022/09/02 07:59:04;;;;;;;;;;;;;;;18.98;nan;101509.38;5016488;28;19913;-56
2022/09/02 08:01:37;;;;;;;;;;;;;;;19.26;nan;101515.81;5018299;28;19913;-53
2022/09/02 08:04:06;;;;;;;;;;;;;;;19.22;nan;101522.28;5052671;28;19925;-54
2022/09/02 08:06:32;;;;;;;;;;;;;;;19.46;nan;101520.91;5054957;28;19970;-55
2022/09/02 08:08:57;;;;;;;;;;;;;;;19.78;nan;101521.66;5036747;28;20356;-57
2022/09/02 08:11:22;;;;;;;;;;;;;;;20.21;nan;101521.63;5054760;28;19917;-56
2022/09/02 08:13:47;;;;;;;;;;;;;;;20.68;nan;101513.34;5054645;28;20011;-56
2022/09/02 08:16:13;;;;;;;;;;;;;;;21.08;nan;101526.84;5054431;28;19923;-57
2022/09/02 08:18:38;;;;;;;;;;;;;;;21.38;nan;101526.66;5036394;28;20368;-53
2022/09/02 08:21:03;;;;;;;;;;;;;;;21.83;nan;101529.78;5054661;28;20008;-53
2022/09/02 08:23:29;;;;;;;;;;;;;;;22.24;nan;101529.63;5054370;28;20011;-56
2022/09/02 08:25:54;;;;;;;;;;;;;;;22.19;nan;101534.47;5054490;28;19970;-58
2022/09/02 08:28:19;;;;;;;;;;;;;;;22.64;nan;101534.88;5054460;28;20394;-54
2022/09/02 08:30:44;;;;;;;;;;;;;;;22.94;nan;101524.63;5054219;28;19920;-55
2022/09/02 08:33:10;;;;;;;;;;;;;;;23.14;nan;101537.47;5053983;28;19963;-58
2022/09/02 08:35:35;;;;;;;;;;;;;;;23.10;nan;101525.22;5054135;28;19920;-53
2022/09/02 08:38:00;;;;;;;;;;;;;;;23.11;nan;101523.38;5035766;28;19920;-55
2022/09/02 08:40:29;;;;;;;;;;;;;;;23.26;nan;101523.09;5054051;28;20015;-52
2022/09/02 08:42:54;;;;;;;;;;;;;;;23.35;nan;101532.31;5019812;28;20368;-57
2022/09/02 08:45:20;;;;;;;;;;;;;;;23.23;nan;101530.53;5054159;28;19920;-57
2022/09/02 08:47:46;;;;;;;;;;;;;;;23.31;nan;101528.13;5051458;28;20376;-57
2022/09/02 08:50:13;;;;;;;;;;;;;;;23.12;nan;101527.75;5052024;28;19919;-58
2022/09/02 08:52:54;;;;;;;;;;;;;;;23.33;nan;101526.19;5052087;28;20152;-56
2022/09/02 08:55:21;;;;;;;;;;;;;;;23.48;nan;101522.38;5053784;28;19913;-56
2022/09/02 08:57:48;;;;;;;;;;;;;;;23.56;nan;101521.78;5019649;28;19931;-56
2022/09/02 09:00:14;;;;;;;;;;;;;;;23.66;nan;101521.00;5036353;28;20015;-58
2022/09/02 09:02:46;;;;;;;;;;;;;;;23.78;nan;101517.38;5035779;28;19956;-56
2022/09/02 09:05:11;;;;;;;;;;;;;;;23.93;nan;101524.22;5036125;28;19912;-58
2022/09/02 09:07:56;;;;;;;;;;;;;;;24.01;nan;101508.38;5053913;28;20008;-56
2022/09/02 09:10:44;;;;;;;;;;;;;;;23.86;nan;101516.78;5053395;28;19921;-55
2022/09/02 09:13:22;;;;;;;;;;;;;;;23.29;nan;101504.06;5040250;28;19918;-53
2022/09/02 09:15:48;;;;;;;;;;;;;;;22.45;nan;101500.44;5035561;28;19917;-55
2022/09/02 09:18:16;;;;;;;;;;;;;;;21.91;nan;101501.63;5053607;28;19913;-55
2022/09/02 09:20:43;;;;;;;;;;;;;;;21.49;nan;101500.88;5035433;28;20363;-54
2022/09/02 09:23:14;;;;;;;;;;;;;;;21.15;nan;101496.94;5035507;28;19916;-57
2022/09/02 09:25:39;;;;;;;;;;;;;;;20.77;nan;101491.38;5053401;28;19920;-58
2022/09/02 09:28:04;;;;;;;;;;;;;;;20.52;nan;101485.84;5053422;28;19909;-57
2022/09/02 09:30:29;;;;;;;;;;;;;;;20.41;nan;101480.31;5053273;28;19917;-55
2022/09/02 09:32:59;;;;;;;;;;;;;;;20.48;nan;101486.16;5053059;28;19917;-57
2022/09/02 09:35:25;;;;;;;;;;;;;;;20.60;nan;101483.56;5053264;28;19912;-56
2022/09/02 09:37:51;;;;;;;;;;;;;;;20.72;nan;101479.25;5053042;28;20036;-59
2022/09/02 09:40:22;;;;;;;;;;;;;;;20.78;nan;101477.00;5035316;28;20003;-58
2022/09/02 09:42:55;;;;;;;;;;;;;;;20.94;nan;101478.69;5053177;28;19919;-56
2022/09/02 09:45:33;;;;;;;;;;;;;;;21.24;nan;101474.03;5053257;28;19913;-59
2022/09/02 09:48:16;;;;;;;;;;;;;;;21.60;nan;101474.22;5052934;28;19916;-58
2022/09/02 09:50:42;;;;;;;;;;;;;;;22.09;nan;101485.13;5052828;28;20350;-57
2022/09/02 09:53:21;;;;;;;;;;;;;;;22.44;nan;101474.59;5052749;28;19917;-59
2022/09/02 09:55:53;;;;;;;;;;;;;;;23.66;nan;101487.88;5034643;28;19968;-54
2022/09/02 09:58:19;;;;;;;;;;;;;;;25.00;nan;101487.00;5052766;28;20276;-58
2022/09/02 10:00:44;;;;;;;;;;;;;;;25.85;nan;101491.44;5035085;28;19919;-59
2022/09/02 10:03:10;;;;;;;;;;;;;;;26.56;nan;101487.00;5052742;28;19917;-57
2022/09/02 10:05:36;;;;;;;;;;;;;;;27.28;nan;101498.41;5034939;28;19912;-56
2022/09/02 10:08:18;;;;;;;;;;;;;;;27.88;nan;101505.38;5034902;28;20013;-57
2022/09/02 10:10:56;;;;;;;;;;;;;;;28.06;nan;101494.69;5052648;28;19927;-60
2022/09/02 10:13:24;;;;;;;;;;;;;;;28.15;nan;101501.94;5052276;28;19912;-59
2022/09/02 10:15:58;;;;;;;;;;;;;;;27.48;nan;101502.00;5034867;28;19950;-60
2022/09/02 10:18:30;;;;;;;;;;;;;;;27.31;nan;101493.59;5018326;28;19920;-60
2022/09/02 10:20:56;;;;;;;;;;;;;;;27.30;nan;101493.72;5052415;28;19920;-60
2022/09/02 10:23:31;;;;;;;;;;;;;;;27.48;nan;101493.91;5051959;28;19919;-61
2022/09/02 10:26:05;;;;;;;;;;;;;;;27.64;nan;101494.19;5034536;28;20064;-60
2022/09/02 10:29:06;;;;;;;;;;;;;;;27.85;nan;101493.00;5052309;28;19951;-61
2022/09/02 10:31:45;;;;;;;;;;;;;;;28.10;nan;101483.44;4990668;28;19920;-62
2022/09/02 10:34:16;;;;;;;;;;;;;;;28.60;nan;101480.41;5027028;28;19921;-62
2022/09/02 10:36:56;;;;;;;;;;;;;;;28.39;nan;101476.06;5052306;28;20173;-60
2022/09/02 10:39:27;;;;;;;;;;;;;;;28.16;nan;101477.44;5052210;28;20063;-60
2022/09/02 10:41:54;;;;;;;;;;;;;;;28.00;nan;101470.91;5052250;28;20057;-59
2022/09/02 10:44:19;;;;;;;;;;;;;;;27.89;nan;101466.53;5034444;28;20007;-62
2022/09/02 10:46:45;;;;;;;;;;;;;;;28.09;nan;101470.06;5052458;28;20017;-63
2022/09/02 10:49:13;;;;;;;;;;;;;;;28.47;nan;101459.94;5034446;28;19932;-62
2022/09/02 10:51:41;;;;;;;;;;;;;;;28.70;nan;101459.53;5017702;28;19962;-60
2022/09/02 10:54:25;;;;;;;;;;;;;;;28.83;nan;101458.19;5052039;28;19924;-62
2022/09/02 10:57:05;;;;;;;;;;;;;;;28.99;nan;101476.47;5051712;28;19920;-62
2022/09/02 10:59:32;;;;;;;;;;;;;;;28.55;nan;101456.44;5052359;28;19919;-61
2022/09/02 11:02:19;;;;;;;;;;;;;;;28.41;nan;101455.13;5052162;28;19912;-61
2022/09/02 11:04:45;;;;;;;;;;;;;;;28.49;nan;101457.91;5034931;28;19920;-63
2022/09/02 11:07:12;;;;;;;;;;;;;;;29.29;nan;101453.59;5034167;28;19913;-63
2022/09/02 11:09:40;;;;;;;;;;;;;;;30.19;nan;101450.53;5034052;28;20295;-62
2022/09/02 11:12:06;;;;;;;;;;;;;;;30.69;nan;101446.03;5050703;28;19913;-63
2022/09/02 11:14:33;;;;;;;;;;;;;;;30.86;nan;101444.22;5050757;28;19924;-63
2022/09/02 11:17:01;;;;;;;;;;;;;;;31.23;nan;101446.53;5050863;28;19947;-62
2022/09/02 11:19:33;;;;;;;;;;;;;;;31.75;nan;101440.59;5033168;28;19917;-61
2022/09/02 11:22:08;;;;;;;;;;;;;;;32.39;nan;101435.16;5050776;28;20023;-63
2022/09/02 11:24:52;;;;;;;;;;;;;;;33.02;nan;101432.28;5033131;28;19959;-61
2022/09/02 11:27:32;;;;;;;;;;;;;;;33.00;nan;101431.63;5050967;28;19913;-60
2022/09/02 11:30:00;;;;;;;;;;;;;;;33.68;nan;101428.91;5050815;28;19921;-60
2022/09/02 11:32:28;;;;;;;;;;;;;;;33.32;nan;101424.09;5050943;28;19913;-61
2022/09/02 11:34:54;;;;;;;;;;;;;;;33.17;nan;101425.91;5018954;28;19913;-64
2022/09/02 11:37:25;;;;;;;;;;;;;;;33.82;nan;101420.75;5020216;28;19917;-61
2022/09/02 11:40:00;;;;;;;;;;;;;;;32.72;nan;101410.31;5054394;28;19925;-60
2022/09/02 11:42:40;;;;;;;;;;;;;;;32.66;nan;101408.31;5036494;28;19920;-63
2022/09/02 11:45:16;;;;;;;;;;;;;;;33.17;nan;101409.53;5036478;28;20014;-63
2022/09/02 11:47:55;;;;;;;;;;;;;;;33.78;nan;101413.94;5036453;28;19919;-62
2022/09/02 11:50:37;;;;;;;;;;;;;;;34.03;nan;101409.09;5035711;28;19923;-63
2022/09/02 11:53:08;;;;;;;;;;;;;;;33.34;nan;101404.78;5053967;28;20414;-61
2022/09/02 11:55:36;;;;;;;;;;;;;;;34.11;nan;101402.69;5054211;28;19912;-63
2022/09/02 11:58:01;;;;;;;;;;;;;;;34.20;nan;101396.94;5036221;28;19924;-63
2022/09/02 12:00:30;;;;;;;;;;;;;;;34.35;nan;101402.41;5054032;28;19916;-61
2022/09/02 12:02:59;;;;;;;;;;;;;;;34.42;nan;101400.56;5036146;28;20292;-63
2022/09/02 12:05:28;;;;;;;;;;;;;;;34.91;nan;101392.56;5053664;28;19919;-63
2022/09/02 12:07:54;;;;;;;;;;;;;;;34.72;nan;101390.44;5053599;28;20283;-64
2022/09/02 12:10:44;;;;;;;;;;;;;;;34.49;nan;101385.97;5035893;28;19924;-63
2022/09/02 12:13:28;;;;;;;;;;;;;;;33.92;nan;101384.94;5053649;28;20362;-63
2022/09/02 12:16:11;;;;;;;;;;;;;;;34.37;nan;101383.91;5053778;28;19968;-61
2022/09/02 12:18:37;;;;;;;;;;;;;;;34.38;nan;101385.63;5053271;28;20172;-62
2022/09/02 12:21:04;;;;;;;;;;;;;;;35.42;nan;101388.66;5035425;28;19917;-63
2022/09/02 12:23:49;;;;;;;;;;;;;;;36.30;nan;101382.53;5053843;28;19944;-62
2022/09/02 12:26:14;;;;;;;;;;;;;;;36.74;nan;101375.72;5053563;28;20092;-63
2022/09/02 12:28:40;;;;;;;;;;;;;;;36.78;nan;101374.28;5035653;28;20299;-64
2022/09/02 12:31:07;;;;;;;;;;;;;;;36.40;nan;101382.16;5036118;28;20372;-64
2022/09/02 12:33:32;;;;;;;;;;;;;;;36.50;nan;101367.00;5053329;28;19913;-61
2022/09/02 12:35:58;;;;;;;;;;;;;;;36.53;nan;101366.59;5053273;28;20004;-61
2022/09/02 12:38:26;;;;;;;;;;;;;;;36.23;nan;101369.81;5051729;28;19923;-62
2022/09/02 12:41:15;;;;;;;;;;;;;;;36.25;nan;101362.25;5052798;28;20015;-62
2022/09/02 12:43:46;;;;;;;;;;;;;;;36.98;nan;101365.03;5042463;28;20379;-62
2022/09/02 12:46:35;;;;;;;;;;;;;;;37.11;nan;101354.06;5053002;28;19916;-60
2022/09/02 12:49:08;;;;;;;;;;;;;;;36.96;nan;101347.91;5035264;28;19919;-61
2022/09/02 12:51:52;;;;;;;;;;;;;;;37.17;nan;101350.47;5052928;28;19966;-62
2022/09/02 12:54:18;;;;;;;;;;;;;;;36.87;nan;101359.28;5034644;28;19919;-63
2022/09/02 12:56:50;;;;;;;;;;;;;;;37.34;nan;101353.63;5018683;28;19913;-67
2022/09/02 12:59:34;;;;;;;;;;;;;;;37.69;nan;101346.00;5052883;28;20331;-61
2022/09/02 13:02:18;;;;;;;;;;;;;;;38.08;nan;101343.19;5034929;28;19912;-63
2022/09/02 13:05:02;;;;;;;;;;;;;;;38.24;nan;101339.09;5053012;28;19924;-72
2022/09/02 13:07:33;;;;;;;;;;;;;;;38.65;nan;101344.19;5053093;28;19924;-69
2022/09/02 13:10:16;;;;;;;;;;;;;;;37.41;nan;101337.16;5052567;28;19928;-72
2022/09/02 13:12:44;;;;;;;;;;;;;;;37.96;nan;101331.19;5052559;28;19968;-69
2022/09/02 13:15:18;;;;;;;;;;;;;;;37.87;nan;101331.59;5052788;28;19921;-70
2022/09/02 13:17:50;;;;;;;;;;;;;;;37.47;nan;101328.09;5034527;28;19912;-69
2022/09/02 13:20:31;;;;;;;;;;;;;;;37.59;nan;101323.66;5034481;28;19913;-69
2022/09/02 13:23:15;;;;;;;;;;;;;;;38.24;nan;101319.84;5034854;28;19997;-70
2022/09/02 13:25:40;;;;;;;;;;;;;;;37.65;nan;101318.16;5053723;28;19955;-68